sensor_id;sensor_type;location;lat;lon;timestamp;temperature;humidity
39695;DHT22;25367;-35.352;149.036;2023-11-21T00:02:26;22.80;54.90
39695;DHT22;25367;-35.352;149.036;2023-11-21T00:04:56;22.90;54.60
39695;DHT22;25367;-35.352;149.036;2023-11-21T00:07:26;23.00;54.60
39695;DHT22;25367;-35.352;149.036;2023-11-21T00:09:55;23.10;54.50
39695;DHT22;25367;-35.352;149.036;2023-11-21T00:12:24;23.20;54.40
39695;DHT22;25367;-35.352;149.036;2023-11-21T00:14:54;23.20;54.20
39695;DHT22;25367;-35.352;149.036;2023-11-21T00:17:27;23.30;54.10
39695;DHT22;25367;-35.352;149.036;2023-11-21T00:19:56;23.40;53.90
39695;DHT22;25367;-35.352;149.036;2023-11-21T00:22:26;23.50;54.00
39695;DHT22;25367;-35.352;149.036;2023-11-21T00:24:56;23.50;53.90
39695;DHT22;25367;-35.352;149.036;2023-11-21T00:27:25;23.60;53.80
39695;DHT22;25367;-35.352;149.036;2023-11-21T00:29:54;23.60;53.70
39695;DHT22;25367;-35.352;149.036;2023-11-21T00:32:28;23.70;53.60
39695;DHT22;25367;-35.352;149.036;2023-11-21T00:34:58;23.70;53.50
39695;DHT22;25367;-35.352;149.036;2023-11-21T00:37:27;23.80;53.50
39695;DHT22;25367;-35.352;149.036;2023-11-21T00:39:57;23.80;53.40
39695;DHT22;25367;-35.352;149.036;2023-11-21T00:42:27;23.80;53.30
39695;DHT22;25367;-35.352;149.036;2023-11-21T00:44:56;23.90;53.30
39695;DHT22;25367;-35.352;149.036;2023-11-21T00:47:30;23.90;53.20
39695;DHT22;25367;-35.352;149.036;2023-11-21T00:49:58;24.00;53.10
39695;DHT22;25367;-35.352;149.036;2023-11-21T00:52:28;23.90;52.50
39695;DHT22;25367;-35.352;149.036;2023-11-21T00:54:57;23.90;53.10
39695;DHT22;25367;-35.352;149.036;2023-11-21T00:57:27;24.00;53.00
39695;DHT22;25367;-35.352;149.036;2023-11-21T00:59:56;24.00;52.90
39695;DHT22;25367;-35.352;149.036;2023-11-21T01:02:30;24.10;52.80
39695;DHT22;25367;-35.352;149.036;2023-11-21T01:04:59;24.10;52.70
39695;DHT22;25367;-35.352;149.036;2023-11-21T01:07:28;24.10;52.70
39695;DHT22;25367;-35.352;149.036;2023-11-21T01:09:58;24.10;52.60
39695;DHT22;25367;-35.352;149.036;2023-11-21T01:12:27;24.20;52.60
39695;DHT22;25367;-35.352;149.036;2023-11-21T01:14:57;24.20;52.50
39695;DHT22;25367;-35.352;149.036;2023-11-21T01:17:30;24.20;52.40
39695;DHT22;25367;-35.352;149.036;2023-11-21T01:19:58;24.30;52.30
39695;DHT22;25367;-35.352;149.036;2023-11-21T01:22:28;24.20;51.90
39695;DHT22;25367;-35.352;149.036;2023-11-21T01:24:57;24.30;52.40
39695;DHT22;25367;-35.352;149.036;2023-11-21T01:27:27;24.30;52.20
39695;DHT22;25367;-35.352;149.036;2023-11-21T01:29:56;24.40;52.10
39695;DHT22;25367;-35.352;149.036;2023-11-21T01:32:29;24.40;52.00
39695;DHT22;25367;-35.352;149.036;2023-11-21T01:34:59;24.40;51.90
39695;DHT22;25367;-35.352;149.036;2023-11-21T01:37:28;24.40;51.90
39695;DHT22;25367;-35.352;149.036;2023-11-21T01:39:58;24.50;51.80
39695;DHT22;25367;-35.352;149.036;2023-11-21T01:42:27;24.50;51.70
39695;DHT22;25367;-35.352;149.036;2023-11-21T01:44:57;24.50;51.70
39695;DHT22;25367;-35.352;149.036;2023-11-21T01:47:30;24.50;51.60
39695;DHT22;25367;-35.352;149.036;2023-11-21T01:49:59;24.60;51.60
39695;DHT22;25367;-35.352;149.036;2023-11-21T01:52:30;24.60;51.60
39695;DHT22;25367;-35.352;149.036;2023-11-21T01:55:00;24.60;51.50
39695;DHT22;25367;-35.352;149.036;2023-11-21T01:57:30;24.60;51.50
39695;DHT22;25367;-35.352;149.036;2023-11-21T02:00:00;24.70;51.60
39695;DHT22;25367;-35.352;149.036;2023-11-21T02:02:33;24.70;51.50
39695;DHT22;25367;-35.352;149.036;2023-11-21T02:05:03;24.70;51.50
39695;DHT22;25367;-35.352;149.036;2023-11-21T02:07:33;24.70;51.50
39695;DHT22;25367;-35.352;149.036;2023-11-21T02:10:02;24.70;51.50
39695;DHT22;25367;-35.352;149.036;2023-11-21T02:12:32;24.80;52.10
39695;DHT22;25367;-35.352;149.036;2023-11-21T02:15:01;24.80;51.40
39695;DHT22;25367;-35.352;149.036;2023-11-21T02:17:34;24.80;51.40
39695;DHT22;25367;-35.352;149.036;2023-11-21T02:20:03;24.80;51.50
39695;DHT22;25367;-35.352;149.036;2023-11-21T02:22:34;24.80;51.50
39695;DHT22;25367;-35.352;149.036;2023-11-21T02:25:12;24.90;51.60
39695;DHT22;25367;-35.352;149.036;2023-11-21T02:27:41;24.90;51.60
39695;DHT22;25367;-35.352;149.036;2023-11-21T02:30:12;24.90;51.60
39695;DHT22;25367;-35.352;149.036;2023-11-21T02:32:41;24.90;51.50
39695;DHT22;25367;-35.352;149.036;2023-11-21T02:35:11;25.00;51.60
39695;DHT22;25367;-35.352;149.036;2023-11-21T02:37:40;25.00;51.60
39695;DHT22;25367;-35.352;149.036;2023-11-21T02:40:13;25.00;51.60
39695;DHT22;25367;-35.352;149.036;2023-11-21T02:42:42;25.00;51.50
39695;DHT22;25367;-35.352;149.036;2023-11-21T02:45:12;25.00;51.60
39695;DHT22;25367;-35.352;149.036;2023-11-21T02:47:42;25.10;51.70
39695;DHT22;25367;-35.352;149.036;2023-11-21T02:50:12;25.00;51.60
39695;DHT22;25367;-35.352;149.036;2023-11-21T02:52:41;25.10;51.60
39695;DHT22;25367;-35.352;149.036;2023-11-21T02:55:13;25.10;51.60
39695;DHT22;25367;-35.352;149.036;2023-11-21T02:57:42;25.10;51.60
39695;DHT22;25367;-35.352;149.036;2023-11-21T03:00:12;25.10;51.60
39695;DHT22;25367;-35.352;149.036;2023-11-21T03:02:42;25.20;51.70
39695;DHT22;25367;-35.352;149.036;2023-11-21T03:05:11;25.20;51.60
39695;DHT22;25367;-35.352;149.036;2023-11-21T03:07:41;25.20;51.60
39695;DHT22;25367;-35.352;149.036;2023-11-21T03:10:14;25.30;51.60
39695;DHT22;25367;-35.352;149.036;2023-11-21T03:12:42;25.30;51.60
39695;DHT22;25367;-35.352;149.036;2023-11-21T03:15:12;25.20;51.40
39695;DHT22;25367;-35.352;149.036;2023-11-21T03:17:41;25.20;51.80
39695;DHT22;25367;-35.352;149.036;2023-11-21T03:20:12;25.30;51.70
39695;DHT22;25367;-35.352;149.036;2023-11-21T03:22:41;25.30;51.70
39695;DHT22;25367;-35.352;149.036;2023-11-21T03:25:15;25.30;51.60
39695;DHT22;25367;-35.352;149.036;2023-11-21T03:27:45;25.40;51.60
39695;DHT22;25367;-35.352;149.036;2023-11-21T03:30:14;25.40;51.60
39695;DHT22;25367;-35.352;149.036;2023-11-21T03:32:44;25.40;51.60
39695;DHT22;25367;-35.352;149.036;2023-11-21T03:35:14;25.50;51.60
39695;DHT22;25367;-35.352;149.036;2023-11-21T03:37:43;25.50;51.60
39695;DHT22;25367;-35.352;149.036;2023-11-21T03:40:16;25.60;51.60
39695;DHT22;25367;-35.352;149.036;2023-11-21T03:42:46;25.60;51.60
39695;DHT22;25367;-35.352;149.036;2023-11-21T03:45:16;25.60;51.60
39695;DHT22;25367;-35.352;149.036;2023-11-21T03:47:46;25.70;51.60
39695;DHT22;25367;-35.352;149.036;2023-11-21T03:50:15;25.70;51.60
39695;DHT22;25367;-35.352;149.036;2023-11-21T03:52:46;25.80;51.60
39695;DHT22;25367;-35.352;149.036;2023-11-21T03:55:20;25.80;51.60
39695;DHT22;25367;-35.352;149.036;2023-11-21T03:57:48;25.80;51.60
39695;DHT22;25367;-35.352;149.036;2023-11-21T04:00:18;25.80;51.40
39695;DHT22;25367;-35.352;149.036;2023-11-21T04:02:47;25.80;51.80
39695;DHT22;25367;-35.352;149.036;2023-11-21T04:05:17;25.80;51.70
39695;DHT22;25367;-35.352;149.036;2023-11-21T04:07:46;25.90;51.70
39695;DHT22;25367;-35.352;149.036;2023-11-21T04:10:19;25.90;51.60
39695;DHT22;25367;-35.352;149.036;2023-11-21T04:12:48;25.90;51.60
39695;DHT22;25367;-35.352;149.036;2023-11-21T04:15:18;25.90;51.60
39695;DHT22;25367;-35.352;149.036;2023-11-21T04:17:47;26.00;51.60
39695;DHT22;25367;-35.352;149.036;2023-11-21T04:20:16;26.00;51.60
39695;DHT22;25367;-35.352;149.036;2023-11-21T04:22:46;26.00;51.50
39695;DHT22;25367;-35.352;149.036;2023-11-21T04:25:19;26.10;51.60
39695;DHT22;25367;-35.352;149.036;2023-11-21T04:27:49;26.10;51.50
39695;DHT22;25367;-35.352;149.036;2023-11-21T04:30:18;26.10;51.50
39695;DHT22;25367;-35.352;149.036;2023-11-21T04:32:48;26.20;51.60
39695;DHT22;25367;-35.352;149.036;2023-11-21T04:35:18;26.20;51.50
39695;DHT22;25367;-35.352;149.036;2023-11-21T04:37:48;26.20;51.50
39695;DHT22;25367;-35.352;149.036;2023-11-21T04:40:21;26.20;51.50
39695;DHT22;25367;-35.352;149.036;2023-11-21T04:42:50;26.30;51.50
39695;DHT22;25367;-35.352;149.036;2023-11-21T04:45:20;26.30;51.60
39695;DHT22;25367;-35.352;149.036;2023-11-21T04:47:49;26.30;51.50
39695;DHT22;25367;-35.352;149.036;2023-11-21T04:50:19;26.30;51.50
39695;DHT22;25367;-35.352;149.036;2023-11-21T04:52:48;26.30;51.50
39695;DHT22;25367;-35.352;149.036;2023-11-21T04:55:21;26.40;51.50
39695;DHT22;25367;-35.352;149.036;2023-11-21T04:57:51;26.40;51.40
39695;DHT22;25367;-35.352;149.036;2023-11-21T05:00:20;26.40;51.40
39695;DHT22;25367;-35.352;149.036;2023-11-21T05:02:50;26.40;51.30
39695;DHT22;25367;-35.352;149.036;2023-11-21T05:05:19;26.40;51.30
39695;DHT22;25367;-35.352;149.036;2023-11-21T05:07:50;26.40;51.30
39695;DHT22;25367;-35.352;149.036;2023-11-21T05:10:23;26.50;51.40
39695;DHT22;25367;-35.352;149.036;2023-11-21T05:12:53;26.50;51.40
39695;DHT22;25367;-35.352;149.036;2023-11-21T05:15:22;26.50;51.40
39695;DHT22;25367;-35.352;149.036;2023-11-21T05:17:52;26.50;51.40
39695;DHT22;25367;-35.352;149.036;2023-11-21T05:20:21;26.60;51.40
39695;DHT22;25367;-35.352;149.036;2023-11-21T05:22:51;26.60;51.40
39695;DHT22;25367;-35.352;149.036;2023-11-21T05:25:24;26.60;51.40
39695;DHT22;25367;-35.352;149.036;2023-11-21T05:27:54;26.60;51.30
39695;DHT22;25367;-35.352;149.036;2023-11-21T05:30:23;26.60;51.40
39695;DHT22;25367;-35.352;149.036;2023-11-21T05:32:53;26.60;51.40
39695;DHT22;25367;-35.352;149.036;2023-11-21T05:35:23;26.60;51.40
39695;DHT22;25367;-35.352;149.036;2023-11-21T05:37:52;26.70;51.40
39695;DHT22;25367;-35.352;149.036;2023-11-21T05:40:25;26.70;51.40
39695;DHT22;25367;-35.352;149.036;2023-11-21T05:42:54;26.80;51.50
39695;DHT22;25367;-35.352;149.036;2023-11-21T05:45:24;26.70;51.40
39695;DHT22;25367;-35.352;149.036;2023-11-21T05:47:53;26.70;51.40
39695;DHT22;25367;-35.352;149.036;2023-11-21T05:50:23;26.80;51.50
39695;DHT22;25367;-35.352;149.036;2023-11-21T05:52:53;26.80;51.50
39695;DHT22;25367;-35.352;149.036;2023-11-21T05:55:25;26.80;51.30
39695;DHT22;25367;-35.352;149.036;2023-11-21T05:57:55;26.80;51.30
39695;DHT22;25367;-35.352;149.036;2023-11-21T06:00:24;26.80;51.30
39695;DHT22;25367;-35.352;149.036;2023-11-21T06:02:54;26.80;51.20
39695;DHT22;25367;-35.352;149.036;2023-11-21T06:05:24;26.80;51.20
39695;DHT22;25367;-35.352;149.036;2023-11-21T06:07:57;26.80;51.20
39695;DHT22;25367;-35.352;149.036;2023-11-21T06:10:30;26.80;51.10
39695;DHT22;25367;-35.352;149.036;2023-11-21T06:12:59;26.90;51.10
39695;DHT22;25367;-35.352;149.036;2023-11-21T06:15:29;26.80;51.10
39695;DHT22;25367;-35.352;149.036;2023-11-21T06:17:58;26.80;51.10
39695;DHT22;25367;-35.352;149.036;2023-11-21T06:20:28;26.80;51.10
39695;DHT22;25367;-35.352;149.036;2023-11-21T06:22:58;26.90;51.10
39695;DHT22;25367;-35.352;149.036;2023-11-21T06:25:31;26.90;51.10
39695;DHT22;25367;-35.352;149.036;2023-11-21T06:28:00;26.90;51.00
39695;DHT22;25367;-35.352;149.036;2023-11-21T06:30:29;26.90;51.00
39695;DHT22;25367;-35.352;149.036;2023-11-21T06:32:59;27.00;51.10
39695;DHT22;25367;-35.352;149.036;2023-11-21T06:35:28;27.00;51.00
39695;DHT22;25367;-35.352;149.036;2023-11-21T06:37:58;27.00;51.30
39695;DHT22;25367;-35.352;149.036;2023-11-21T06:40:30;27.00;51.00
39695;DHT22;25367;-35.352;149.036;2023-11-21T06:43:00;27.10;51.00
39695;DHT22;25367;-35.352;149.036;2023-11-21T06:45:30;27.10;50.90
39695;DHT22;25367;-35.352;149.036;2023-11-21T06:48:00;27.10;50.90
39695;DHT22;25367;-35.352;149.036;2023-11-21T06:50:29;27.10;50.90
39695;DHT22;25367;-35.352;149.036;2023-11-21T06:52:59;27.10;50.80
39695;DHT22;25367;-35.352;149.036;2023-11-21T06:55:31;27.10;50.80
39695;DHT22;25367;-35.352;149.036;2023-11-21T06:58:00;27.10;50.80
39695;DHT22;25367;-35.352;149.036;2023-11-21T07:00:30;27.20;50.80
39695;DHT22;25367;-35.352;149.036;2023-11-21T07:02:59;27.20;50.70
39695;DHT22;25367;-35.352;149.036;2023-11-21T07:05:28;27.20;50.70
39695;DHT22;25367;-35.352;149.036;2023-11-21T07:07:58;27.10;50.70
39695;DHT22;25367;-35.352;149.036;2023-11-21T07:10:30;27.10;50.60
39695;DHT22;25367;-35.352;149.036;2023-11-21T07:13:00;27.10;50.60
39695;DHT22;25367;-35.352;149.036;2023-11-21T07:15:29;27.10;50.60
39695;DHT22;25367;-35.352;149.036;2023-11-21T07:17:59;27.10;50.60
39695;DHT22;25367;-35.352;149.036;2023-11-21T07:20:29;27.10;50.50
39695;DHT22;25367;-35.352;149.036;2023-11-21T07:22:58;27.10;50.50
39695;DHT22;25367;-35.352;149.036;2023-11-21T07:25:30;27.10;50.50
39695;DHT22;25367;-35.352;149.036;2023-11-21T07:28:00;27.10;51.10
39695;DHT22;25367;-35.352;149.036;2023-11-21T07:30:30;27.10;50.50
39695;DHT22;25367;-35.352;149.036;2023-11-21T07:33:00;27.10;50.50
39695;DHT22;25367;-35.352;149.036;2023-11-21T07:35:30;27.00;50.40
39695;DHT22;25367;-35.352;149.036;2023-11-21T07:38:00;27.10;50.40
39695;DHT22;25367;-35.352;149.036;2023-11-21T07:40:31;27.10;50.30
39695;DHT22;25367;-35.352;149.036;2023-11-21T07:43:01;27.00;49.70
39695;DHT22;25367;-35.352;149.036;2023-11-21T07:45:31;27.00;48.90
39695;DHT22;25367;-35.352;149.036;2023-11-21T07:48:00;27.00;48.40
39695;DHT22;25367;-35.352;149.036;2023-11-21T07:50:30;27.00;48.60
39695;DHT22;25367;-35.352;149.036;2023-11-21T07:52:59;26.90;48.10
39695;DHT22;25367;-35.352;149.036;2023-11-21T07:55:31;26.90;48.00
39695;DHT22;25367;-35.352;149.036;2023-11-21T07:58:01;26.80;47.90
39695;DHT22;25367;-35.352;149.036;2023-11-21T08:00:30;26.80;47.80
39695;DHT22;25367;-35.352;149.036;2023-11-21T08:02:59;26.80;47.70
39695;DHT22;25367;-35.352;149.036;2023-11-21T08:05:29;26.80;47.50
39695;DHT22;25367;-35.352;149.036;2023-11-21T08:07:58;26.80;47.60
39695;DHT22;25367;-35.352;149.036;2023-11-21T08:10:30;26.70;47.40
39695;DHT22;25367;-35.352;149.036;2023-11-21T08:12:59;26.70;47.50
39695;DHT22;25367;-35.352;149.036;2023-11-21T08:15:29;26.70;47.60
39695;DHT22;25367;-35.352;149.036;2023-11-21T08:17:58;26.70;47.40
39695;DHT22;25367;-35.352;149.036;2023-11-21T08:20:28;26.70;47.40
39695;DHT22;25367;-35.352;149.036;2023-11-21T08:22:57;26.70;47.30
39695;DHT22;25367;-35.352;149.036;2023-11-21T08:25:27;26.70;47.10
39695;DHT22;25367;-35.352;149.036;2023-11-21T08:27:58;26.70;47.10
39695;DHT22;25367;-35.352;149.036;2023-11-21T08:30:27;26.70;47.00
39695;DHT22;25367;-35.352;149.036;2023-11-21T08:32:57;26.70;47.10
39695;DHT22;25367;-35.352;149.036;2023-11-21T08:35:26;26.60;46.80
39695;DHT22;25367;-35.352;149.036;2023-11-21T08:38:01;26.60;46.80
39695;DHT22;25367;-35.352;149.036;2023-11-21T08:40:31;26.60;46.90
39695;DHT22;25367;-35.352;149.036;2023-11-21T08:43:02;26.60;46.80
39695;DHT22;25367;-35.352;149.036;2023-11-21T08:45:32;26.60;46.60
39695;DHT22;25367;-35.352;149.036;2023-11-21T08:48:01;26.50;47.10
39695;DHT22;25367;-35.352;149.036;2023-11-21T08:50:31;26.50;46.60
39695;DHT22;25367;-35.352;149.036;2023-11-21T08:53:00;26.50;46.60
39695;DHT22;25367;-35.352;149.036;2023-11-21T08:55:30;26.50;46.50
39695;DHT22;25367;-35.352;149.036;2023-11-21T08:58:01;26.50;46.60
39695;DHT22;25367;-35.352;149.036;2023-11-21T09:00:34;26.50;46.60
39695;DHT22;25367;-35.352;149.036;2023-11-21T09:03:04;26.50;46.60
39695;DHT22;25367;-35.352;149.036;2023-11-21T09:05:33;26.50;46.70
39695;DHT22;25367;-35.352;149.036;2023-11-21T09:08:03;26.50;46.70
39695;DHT22;25367;-35.352;149.036;2023-11-21T09:10:32;26.50;46.70
39695;DHT22;25367;-35.352;149.036;2023-11-21T09:13:05;26.50;46.70
39695;DHT22;25367;-35.352;149.036;2023-11-21T09:15:34;26.50;46.80
39695;DHT22;25367;-35.352;149.036;2023-11-21T09:18:04;26.50;46.90
39695;DHT22;25367;-35.352;149.036;2023-11-21T09:20:33;26.50;46.90
39695;DHT22;25367;-35.352;149.036;2023-11-21T09:23:03;26.50;46.90
39695;DHT22;25367;-35.352;149.036;2023-11-21T09:25:33;26.40;46.80
39695;DHT22;25367;-35.352;149.036;2023-11-21T09:28:06;26.50;46.90
39695;DHT22;25367;-35.352;149.036;2023-11-21T09:30:36;26.50;47.00
39695;DHT22;25367;-35.352;149.036;2023-11-21T09:33:05;26.50;47.00
39695;DHT22;25367;-35.352;149.036;2023-11-21T09:35:35;26.50;46.90
39695;DHT22;25367;-35.352;149.036;2023-11-21T09:38:04;26.50;47.00
39695;DHT22;25367;-35.352;149.036;2023-11-21T09:40:34;26.50;47.00
39695;DHT22;25367;-35.352;149.036;2023-11-21T09:43:07;26.50;47.20
39695;DHT22;25367;-35.352;149.036;2023-11-21T09:45:40;26.50;47.10
39695;DHT22;25367;-35.352;149.036;2023-11-21T09:48:11;26.50;47.10
39695;DHT22;25367;-35.352;149.036;2023-11-21T09:50:43;26.50;47.30
39695;DHT22;25367;-35.352;149.036;2023-11-21T09:53:19;26.50;47.20
39695;DHT22;25367;-35.352;149.036;2023-11-21T09:55:49;26.50;47.30
39695;DHT22;25367;-35.352;149.036;2023-11-21T09:58:21;26.50;47.30
39695;DHT22;25367;-35.352;149.036;2023-11-21T10:00:54;26.50;47.40
39695;DHT22;25367;-35.352;149.036;2023-11-21T10:03:24;26.50;47.40
39695;DHT22;25367;-35.352;149.036;2023-11-21T10:05:54;26.40;47.30
39695;DHT22;25367;-35.352;149.036;2023-11-21T10:08:25;26.40;47.30
39695;DHT22;25367;-35.352;149.036;2023-11-21T10:10:58;26.50;47.40
39695;DHT22;25367;-35.352;149.036;2023-11-21T10:13:30;26.50;47.50
39695;DHT22;25367;-35.352;149.036;2023-11-21T10:16:03;26.50;47.50
39695;DHT22;25367;-35.352;149.036;2023-11-21T10:18:37;26.50;47.60
39695;DHT22;25367;-35.352;149.036;2023-11-21T10:21:10;26.40;47.50
39695;DHT22;25367;-35.352;149.036;2023-11-21T10:23:40;26.40;47.50
39695;DHT22;25367;-35.352;149.036;2023-11-21T10:26:11;26.40;47.50
39695;DHT22;25367;-35.352;149.036;2023-11-21T10:28:55;26.50;47.60
39695;DHT22;25367;-35.352;149.036;2023-11-21T10:31:25;26.50;47.70
39695;DHT22;25367;-35.352;149.036;2023-11-21T10:33:57;26.40;47.50
39695;DHT22;25367;-35.352;149.036;2023-11-21T10:36:39;26.50;47.60
39695;DHT22;25367;-35.352;149.036;2023-11-21T10:39:08;26.40;47.60
39695;DHT22;25367;-35.352;149.036;2023-11-21T10:41:39;26.40;47.70
39695;DHT22;25367;-35.352;149.036;2023-11-21T10:44:10;26.40;47.60
39695;DHT22;25367;-35.352;149.036;2023-11-21T10:46:40;26.40;47.60
39695;DHT22;25367;-35.352;149.036;2023-11-21T10:49:11;26.40;47.60
39695;DHT22;25367;-35.352;149.036;2023-11-21T10:51:43;26.50;47.70
39695;DHT22;25367;-35.352;149.036;2023-11-21T10:54:15;26.40;47.70
39695;DHT22;25367;-35.352;149.036;2023-11-21T10:56:47;26.30;47.70
39695;DHT22;25367;-35.352;149.036;2023-11-21T10:59:19;26.30;47.50
39695;DHT22;25367;-35.352;149.036;2023-11-21T11:01:49;26.40;47.50
39695;DHT22;25367;-35.352;149.036;2023-11-21T11:04:20;26.30;47.70
39695;DHT22;25367;-35.352;149.036;2023-11-21T11:06:56;26.40;47.40
39695;DHT22;25367;-35.352;149.036;2023-11-21T11:09:29;26.40;47.40
39695;DHT22;25367;-35.352;149.036;2023-11-21T11:12:00;26.30;47.20
39695;DHT22;25367;-35.352;149.036;2023-11-21T11:14:31;26.30;47.10
39695;DHT22;25367;-35.352;149.036;2023-11-21T11:17:02;26.30;47.20
39695;DHT22;25367;-35.352;149.036;2023-11-21T11:19:35;26.30;47.20
39695;DHT22;25367;-35.352;149.036;2023-11-21T11:22:08;26.30;47.10
39695;DHT22;25367;-35.352;149.036;2023-11-21T21:08:28;21.00;52.60
39695;DHT22;25367;-35.352;149.036;2023-11-21T21:10:58;21.00;53.60
39695;DHT22;25367;-35.352;149.036;2023-11-21T21:13:27;21.10;53.70
39695;DHT22;25367;-35.352;149.036;2023-11-21T21:15:57;21.30;53.80
39695;DHT22;25367;-35.352;149.036;2023-11-21T21:18:26;21.50;53.60
39695;DHT22;25367;-35.352;149.036;2023-11-21T21:20:55;21.60;53.50
39695;DHT22;25367;-35.352;149.036;2023-11-21T21:23:31;21.70;53.20
39695;DHT22;25367;-35.352;149.036;2023-11-21T21:26:01;21.80;52.90
39695;DHT22;25367;-35.352;149.036;2023-11-21T21:28:31;21.90;52.90
39695;DHT22;25367;-35.352;149.036;2023-11-21T21:31:00;22.00;52.90
39695;DHT22;25367;-35.352;149.036;2023-11-21T21:33:30;22.00;52.90
39695;DHT22;25367;-35.352;149.036;2023-11-21T21:35:59;22.10;53.00
39695;DHT22;25367;-35.352;149.036;2023-11-21T21:38:32;22.10;53.00
39695;DHT22;25367;-35.352;149.036;2023-11-21T21:41:02;22.20;52.90
39695;DHT22;25367;-35.352;149.036;2023-11-21T21:43:31;22.20;53.20
39695;DHT22;25367;-35.352;149.036;2023-11-21T21:46:00;22.30;53.00
39695;DHT22;25367;-35.352;149.036;2023-11-21T21:48:30;22.30;53.50
39695;DHT22;25367;-35.352;149.036;2023-11-21T21:50:59;22.30;52.80
39695;DHT22;25367;-35.352;149.036;2023-11-21T21:53:30;22.40;52.90
39695;DHT22;25367;-35.352;149.036;2023-11-21T21:56:00;22.50;52.80
39695;DHT22;25367;-35.352;149.036;2023-11-21T21:58:29;22.50;52.80
39695;DHT22;25367;-35.352;149.036;2023-11-21T22:00:59;22.50;52.70
39695;DHT22;25367;-35.352;149.036;2023-11-21T22:03:29;22.60;52.80
39695;DHT22;25367;-35.352;149.036;2023-11-21T22:05:59;22.70;52.70
39695;DHT22;25367;-35.352;149.036;2023-11-21T22:08:31;22.70;52.70
39695;DHT22;25367;-35.352;149.036;2023-11-21T22:11:01;22.70;52.60
39695;DHT22;25367;-35.352;149.036;2023-11-21T22:13:31;22.80;52.60
39695;DHT22;25367;-35.352;149.036;2023-11-21T22:16:00;22.80;52.60
39695;DHT22;25367;-35.352;149.036;2023-11-21T22:18:30;22.90;52.50
39695;DHT22;25367;-35.352;149.036;2023-11-21T22:20:59;22.90;52.50
39695;DHT22;25367;-35.352;149.036;2023-11-21T22:23:31;22.90;52.30
39695;DHT22;25367;-35.352;149.036;2023-11-21T22:26:01;23.00;52.30
39695;DHT22;25367;-35.352;149.036;2023-11-21T22:28:30;23.00;52.20
39695;DHT22;25367;-35.352;149.036;2023-11-21T22:31:00;23.00;52.30
39695;DHT22;25367;-35.352;149.036;2023-11-21T22:33:29;23.00;52.10
39695;DHT22;25367;-35.352;149.036;2023-11-21T22:35:59;23.10;52.20
39695;DHT22;25367;-35.352;149.036;2023-11-21T22:38:30;23.10;51.90
39695;DHT22;25367;-35.352;149.036;2023-11-21T22:40:59;23.20;51.90
39695;DHT22;25367;-35.352;149.036;2023-11-21T22:43:29;23.20;52.50
39695;DHT22;25367;-35.352;149.036;2023-11-21T22:45:58;23.20;51.80
39695;DHT22;25367;-35.352;149.036;2023-11-21T22:48:28;23.20;51.80
39695;DHT22;25367;-35.352;149.036;2023-11-21T22:50:58;23.30;51.80
39695;DHT22;25367;-35.352;149.036;2023-11-21T22:53:29;23.30;51.70
39695;DHT22;25367;-35.352;149.036;2023-11-21T22:55:58;23.30;51.70
39695;DHT22;25367;-35.352;149.036;2023-11-21T22:58:28;23.40;51.70
39695;DHT22;25367;-35.352;149.036;2023-11-21T23:00:58;23.40;51.60
39695;DHT22;25367;-35.352;149.036;2023-11-21T23:03:27;23.40;51.50
39695;DHT22;25367;-35.352;149.036;2023-11-21T23:05:56;23.40;51.50
39695;DHT22;25367;-35.352;149.036;2023-11-21T23:08:26;23.50;51.60
39695;DHT22;25367;-35.352;149.036;2023-11-21T23:10:59;23.50;51.40
39695;DHT22;25367;-35.352;149.036;2023-11-21T23:13:28;23.60;51.40
39695;DHT22;25367;-35.352;149.036;2023-11-21T23:15:58;23.60;51.40
39695;DHT22;25367;-35.352;149.036;2023-11-21T23:18:28;23.60;51.40
39695;DHT22;25367;-35.352;149.036;2023-11-21T23:20:57;23.60;51.30
39695;DHT22;25367;-35.352;149.036;2023-11-21T23:23:27;23.70;51.30
39695;DHT22;25367;-35.352;149.036;2023-11-21T23:25:58;23.70;51.20
39695;DHT22;25367;-35.352;149.036;2023-11-21T23:28:28;23.70;51.10
39695;DHT22;25367;-35.352;149.036;2023-11-21T23:30:57;23.80;51.10
39695;DHT22;25367;-35.352;149.036;2023-11-21T23:33:27;23.80;51.10
39695;DHT22;25367;-35.352;149.036;2023-11-21T23:35:56;23.80;51.00
39695;DHT22;25367;-35.352;149.036;2023-11-21T23:38:26;23.90;51.00
39695;DHT22;25367;-35.352;149.036;2023-11-21T23:40:57;23.90;51.50
39695;DHT22;25367;-35.352;149.036;2023-11-21T23:43:26;23.90;50.90
39695;DHT22;25367;-35.352;149.036;2023-11-21T23:45:56;23.90;50.90
39695;DHT22;25367;-35.352;149.036;2023-11-21T23:48:25;23.90;50.70
39695;DHT22;25367;-35.352;149.036;2023-11-21T23:50:54;24.00;50.70
39695;DHT22;25367;-35.352;149.036;2023-11-21T23:53:24;24.00;50.70
39695;DHT22;25367;-35.352;149.036;2023-11-21T23:55:53;24.10;50.60
39695;DHT22;25367;-35.352;149.036;2023-11-21T23:58:25;24.10;50.60
